Meteo Giornale » Osservazioni meteo Emirati Arabi Uniti » Ras Al Khaimah
ore: 22:30 - Osservazioni Meteo Ras Al Khaimah
Lat. 25° 37' N Lon. 55° 56' E Alt. 31 metri s.l.m.
32 °C
Sereno
Temp. 24 Ore
28 °C
44 °C
Nord
1.8 Km/h
Dew point 20 °C
Umidità 49 %
Visibilità 10 Km
Il sole sorge alle ore 05:56
Il sole tramonta alle ore 18:36
| Data e Ora | Cielo e Fenomeni | T °C | DP °C | Um. % | Pres. hPa | Vis. km | Vento km/h | |
|---|---|---|---|---|---|---|---|---|
| Oggi h: 22:30 | Sereno | 32 | 20 | 49 | 1001 | 10 | N 1.8 | |
| Oggi h: 22:00 | Sereno | 33 | 20 | 46 | 1001 | 10 | N 1.8 | |
| Oggi h: 21:30 | Sereno | 33 | 21 | 49 | 1001 | 10 | N 5.5 | |
| Oggi h: 21:00 | Sereno | 34 | 20 | 43 | 1001 | 10 | N 5.5 | |
| Oggi h: 20:30 | Sereno | 34 | 19 | 41 | 1000 | 10 | N/NO 7.4 | |
| Oggi h: 20:00 | Sereno | 35 | 19 | 39 | 1000 | 10 | N/NE 9.3 | |
| Oggi h: 19:30 | Sereno | 35 | 18 | 36 | 1000 | 10 | N 5.5 | |
| Oggi h: 19:00 | Sereno | 36 | 18 | 34 | 999 | 10 | N/NO 9.3 | |
| Oggi h: 18:30 | Sereno | 38 | 17 | 29 | 999 | 10 | N/NO 13 | |
| Oggi h: 18:00 | Sereno | 39 | 16 | 26 | 999 | 10 | N/NO 14.8 | |
| Oggi h: 17:30 | Sereno | 41 | 15 | 21 | 999 | 10 | N/NO 16.7 | |
| Oggi h: 17:00 | Sereno | 42 | 15 | 20 | 999 | 10 | N/NO 14.8 | |
| Oggi h: 16:30 | Sereno | 42 | 16 | 22 | 998 | 10 | N 18.5 | |
| Oggi h: 16:00 | Sereno | 42 | 16 | 22 | 998 | 10 | N 22.2 | |
| Oggi h: 15:30 | Sereno | 42 | 18 | 25 | 998 | 10 | N 24 | |
| Oggi h: 15:00 | Sereno | 41 | 19 | 28 | 998 | 10 | N 24 | |
| Oggi h: 14:30 | Sereno | 43 | 19 | 25 | 999 | 10 | N 22.2 | |
| Oggi h: 14:00 | Sereno | 42 | 21 | 30 | 999 | 10 | N 20.3 | |
| Oggi h: 13:30 | Sereno | 42 | 22 | 32 | 999 | 10 | N 18.5 | |
| Oggi h: 13:00 | Sereno | 42 | 23 | 34 | 1000 | 10 | N 18.5 | |
| Oggi h: 12:30 | Sereno | 42 | 24 | 36 | 1000 | 10 | N 5.5 | |
| Oggi h: 12:00 | Sereno | 44 | 13 | 16 | 1000 | 10 | N 5.5 | |
| Oggi h: 11:30 | Sereno | 43 | 14 | 18 | 1001 | 10 | N 9.3 | |
| Oggi h: 11:00 | Sereno | 43 | 15 | 19 | 1001 | 10 | SE 11.1 | |
| Oggi h: 10:30 | Sereno | 42 | 17 | 23 | 1001 | 10 | SE 13 | |
| Oggi h: 10:00 | Sereno | 40 | 23 | 38 | 1001 | 8 | N 3.7 | |
| Oggi h: 09:30 | Sereno | 38 | 25 | 47 | 1001 | 6 | N 1.8 | |
| Oggi h: 09:00 | Foschia | 36 | 27 | 60 | 1001 | 5 | N 5.5 | |
| Oggi h: 08:30 | Foschia | 34 | 28 | 71 | 1001 | 4 | N 5.5 | |
| Oggi h: 08:00 | Foschia | 33 | 29 | 79 | 1001 | 4 | N/NE 9.3 | |
| Oggi h: 07:30 | Foschia | 32 | 28 | 79 | 1001 | 3 | NE 7.4 | |
| Oggi h: 07:00 | Foschia | 30 | 27 | 84 | 1001 | 3 | N 7.4 | |
| Oggi h: 06:30 | Foschia | 28 | 26 | 88 | 1001 | 3 | N 5.5 | |
| Oggi h: 06:00 | Foschia | 28 | 25 | 83 | 1000 | 3 | N 1.8 | |
| Oggi h: 05:30 | Foschia | 29 | 27 | 89 | 1000 | 4 | N 1.8 | |
| Oggi h: 05:00 | Foschia | 30 | 27 | 84 | 1000 | 4 | N 5.5 | |
| Oggi h: 04:30 | Foschia | 30 | 27 | 84 | 1000 | 4 | N 5.5 | |
| Oggi h: 04:00 | Foschia | 30 | 27 | 84 | 1000 | 4 | N 1.8 | |
| Oggi h: 03:00 | Foschia | 30 | 26 | 79 | 1000 | 4 | N 1.8 | |
| Oggi h: 02:30 | Foschia | 30 | 27 | 84 | 1000 | 4 | N 3.7 | |
| Oggi h: 02:00 | Foschia | 30 | 27 | 84 | 1000 | 5 | N 5.5 | |
| Oggi h: 01:30 | Foschia | 31 | 27 | 79 | 1000 | 5 | N 5.5 | |
| Oggi h: 01:00 | Foschia | 31 | 27 | 79 | 1000 | 5 | N 5.5 | |
| Oggi h: 00:30 | Foschia | 31 | 27 | 79 | 1000 | 5 | N 3.7 | |
| Oggi h: 00:00 | Foschia | 31 | 27 | 79 | 1000 | 5 | N 3.7 | |
| Ieri h: 23:30 | Foschia | 32 | 27 | 74 | 1000 | 5 | N 3.7 | |
| Ieri h: 23:00 | Foschia | 32 | 28 | 79 | 1001 | 5 | N 5.5 | |



